sensor_id;sensor_type;location;lat;lon;timestamp;P1;durP1;ratioP1;P2;durP2;ratioP2
19599;SDS011;9947;57.722;12.012;2022-10-16T00:01:44;27.27;;;11.87;;
19599;SDS011;9947;57.722;12.012;2022-10-16T00:04:11;32.00;;;10.93;;
19599;SDS011;9947;57.722;12.012;2022-10-16T00:06:38;29.43;;;11.00;;
19599;SDS011;9947;57.722;12.012;2022-10-16T00:09:07;30.23;;;10.70;;
19599;SDS011;9947;57.722;12.012;2022-10-16T00:11:36;21.57;;;8.60;;
19599;SDS011;9947;57.722;12.012;2022-10-16T00:14:06;27.97;;;8.70;;
19599;SDS011;9947;57.722;12.012;2022-10-16T00:16:34;24.63;;;8.73;;
19599;SDS011;9947;57.722;12.012;2022-10-16T00:19:00;25.63;;;7.60;;
19599;SDS011;9947;57.722;12.012;2022-10-16T00:21:30;23.10;;;8.43;;
19599;SDS011;9947;57.722;12.012;2022-10-16T00:23:58;21.17;;;7.10;;
19599;SDS011;9947;57.722;12.012;2022-10-16T00:26:27;22.43;;;7.53;;
19599;SDS011;9947;57.722;12.012;2022-10-16T00:28:56;19.80;;;6.77;;
19599;SDS011;9947;57.722;12.012;2022-10-16T00:31:24;19.77;;;6.33;;
19599;SDS011;9947;57.722;12.012;2022-10-16T00:33:53;19.67;;;6.13;;
19599;SDS011;9947;57.722;12.012;2022-10-16T00:36:20;26.23;;;6.03;;
19599;SDS011;9947;57.722;12.012;2022-10-16T00:38:50;13.43;;;5.53;;
19599;SDS011;9947;57.722;12.012;2022-10-16T00:41:19;21.17;;;5.83;;
19599;SDS011;9947;57.722;12.012;2022-10-16T00:43:48;14.00;;;5.37;;
19599;SDS011;9947;57.722;12.012;2022-10-16T00:46:19;20.03;;;5.20;;
19599;SDS011;9947;57.722;12.012;2022-10-16T00:48:48;19.63;;;5.30;;
19599;SDS011;9947;57.722;12.012;2022-10-16T00:51:18;22.07;;;5.27;;
19599;SDS011;9947;57.722;12.012;2022-10-16T00:53:48;10.87;;;4.70;;
19599;SDS011;9947;57.722;12.012;2022-10-16T00:56:16;22.90;;;4.67;;
19599;SDS011;9947;57.722;12.012;2022-10-16T00:58:43;17.33;;;4.77;;
19599;SDS011;9947;57.722;12.012;2022-10-16T01:01:10;15.70;;;5.43;;
19599;SDS011;9947;57.722;12.012;2022-10-16T01:03:38;15.80;;;5.00;;
19599;SDS011;9947;57.722;12.012;2022-10-16T01:06:09;14.50;;;4.20;;
19599;SDS011;9947;57.722;12.012;2022-10-16T01:08:48;17.10;;;4.57;;
19599;SDS011;9947;57.722;12.012;2022-10-16T01:11:26;17.23;;;4.63;;
19599;SDS011;9947;57.722;12.012;2022-10-16T01:13:59;13.50;;;4.90;;
19599;SDS011;9947;57.722;12.012;2022-10-16T01:16:34;21.30;;;5.20;;
19599;SDS011;9947;57.722;12.012;2022-10-16T01:19:08;11.87;;;4.50;;
19599;SDS011;9947;57.722;12.012;2022-10-16T01:21:39;13.57;;;4.37;;
19599;SDS011;9947;57.722;12.012;2022-10-16T01:24:09;15.97;;;5.30;;
19599;SDS011;9947;57.722;12.012;2022-10-16T01:29:42;13.13;;;4.50;;
19599;SDS011;9947;57.722;12.012;2022-10-16T01:32:17;17.47;;;5.67;;
19599;SDS011;9947;57.722;12.012;2022-10-16T01:34:55;9.20;;;3.97;;
19599;SDS011;9947;57.722;12.012;2022-10-16T01:37:31;23.17;;;4.43;;
19599;SDS011;9947;57.722;12.012;2022-10-16T01:40:02;11.83;;;4.53;;
19599;SDS011;9947;57.722;12.012;2022-10-16T01:42:36;17.03;;;4.70;;
19599;SDS011;9947;57.722;12.012;2022-10-16T01:45:07;18.80;;;5.00;;
19599;SDS011;9947;57.722;12.012;2022-10-16T01:47:38;18.00;;;4.80;;
19599;SDS011;9947;57.722;12.012;2022-10-16T01:50:06;21.23;;;5.20;;
19599;SDS011;9947;57.722;12.012;2022-10-16T01:52:35;16.07;;;4.47;;
19599;SDS011;9947;57.722;12.012;2022-10-16T01:55:06;16.03;;;4.37;;
19599;SDS011;9947;57.722;12.012;2022-10-16T01:57:42;20.07;;;4.30;;
19599;SDS011;9947;57.722;12.012;2022-10-16T02:00:13;20.17;;;5.00;;
19599;SDS011;9947;57.722;12.012;2022-10-16T02:02:43;16.37;;;4.70;;
19599;SDS011;9947;57.722;12.012;2022-10-16T02:05:16;17.47;;;4.17;;
19599;SDS011;9947;57.722;12.012;2022-10-16T02:07:47;22.53;;;5.10;;
19599;SDS011;9947;57.722;12.012;2022-10-16T02:10:15;18.17;;;4.53;;
19599;SDS011;9947;57.722;12.012;2022-10-16T02:12:44;20.83;;;4.90;;
19599;SDS011;9947;57.722;12.012;2022-10-16T02:15:15;18.83;;;4.90;;
19599;SDS011;9947;57.722;12.012;2022-10-16T02:17:42;18.87;;;4.67;;
19599;SDS011;9947;57.722;12.012;2022-10-16T02:20:09;17.70;;;4.90;;
19599;SDS011;9947;57.722;12.012;2022-10-16T02:22:38;16.50;;;4.63;;
19599;SDS011;9947;57.722;12.012;2022-10-16T02:25:10;18.33;;;5.00;;
19599;SDS011;9947;57.722;12.012;2022-10-16T02:27:44;21.87;;;5.80;;
19599;SDS011;9947;57.722;12.012;2022-10-16T02:30:19;18.50;;;4.90;;
19599;SDS011;9947;57.722;12.012;2022-10-16T02:32:51;24.23;;;5.17;;
19599;SDS011;9947;57.722;12.012;2022-10-16T02:35:20;21.60;;;4.97;;
19599;SDS011;9947;57.722;12.012;2022-10-16T02:37:49;22.93;;;5.90;;
19599;SDS011;9947;57.722;12.012;2022-10-16T02:40:17;14.83;;;4.97;;
19599;SDS011;9947;57.722;12.012;2022-10-16T02:42:44;27.67;;;6.03;;
19599;SDS011;9947;57.722;12.012;2022-10-16T02:45:18;24.60;;;5.17;;
19599;SDS011;9947;57.722;12.012;2022-10-16T02:47:45;13.73;;;4.63;;
19599;SDS011;9947;57.722;12.012;2022-10-16T02:50:12;19.10;;;5.57;;
19599;SDS011;9947;57.722;12.012;2022-10-16T02:52:39;20.00;;;5.10;;
19599;SDS011;9947;57.722;12.012;2022-10-16T02:55:06;18.63;;;4.73;;
19599;SDS011;9947;57.722;12.012;2022-10-16T02:57:33;20.17;;;4.93;;
19599;SDS011;9947;57.722;12.012;2022-10-16T03:00:03;18.60;;;5.00;;
19599;SDS011;9947;57.722;12.012;2022-10-16T03:02:31;19.90;;;5.40;;
19599;SDS011;9947;57.722;12.012;2022-10-16T03:04:58;18.03;;;5.17;;
19599;SDS011;9947;57.722;12.012;2022-10-16T03:07:24;26.57;;;5.13;;
19599;SDS011;9947;57.722;12.012;2022-10-16T03:09:51;24.43;;;5.27;;
19599;SDS011;9947;57.722;12.012;2022-10-16T03:12:19;25.73;;;6.17;;
19599;SDS011;9947;57.722;12.012;2022-10-16T03:14:46;18.60;;;5.00;;
19599;SDS011;9947;57.722;12.012;2022-10-16T03:17:14;21.97;;;4.53;;
19599;SDS011;9947;57.722;12.012;2022-10-16T03:19:44;19.23;;;4.70;;
19599;SDS011;9947;57.722;12.012;2022-10-16T03:22:11;25.47;;;4.80;;
19599;SDS011;9947;57.722;12.012;2022-10-16T03:24:38;27.90;;;5.20;;
19599;SDS011;9947;57.722;12.012;2022-10-16T03:27:04;21.87;;;5.13;;
19599;SDS011;9947;57.722;12.012;2022-10-16T03:29:31;17.47;;;4.90;;
19599;SDS011;9947;57.722;12.012;2022-10-16T03:31:58;20.90;;;5.17;;
19599;SDS011;9947;57.722;12.012;2022-10-16T03:34:27;22.70;;;4.70;;
19599;SDS011;9947;57.722;12.012;2022-10-16T03:36:54;22.33;;;5.23;;
19599;SDS011;9947;57.722;12.012;2022-10-16T03:39:20;13.43;;;4.53;;
19599;SDS011;9947;57.722;12.012;2022-10-16T03:41:47;16.00;;;4.60;;
19599;SDS011;9947;57.722;12.012;2022-10-16T03:44:14;21.50;;;5.40;;
19599;SDS011;9947;57.722;12.012;2022-10-16T03:46:41;20.30;;;4.73;;
19599;SDS011;9947;57.722;12.012;2022-10-16T03:49:08;21.53;;;5.00;;
19599;SDS011;9947;57.722;12.012;2022-10-16T03:51:36;20.73;;;5.10;;
19599;SDS011;9947;57.722;12.012;2022-10-16T03:54:02;24.03;;;4.50;;
19599;SDS011;9947;57.722;12.012;2022-10-16T03:56:29;22.47;;;5.17;;
19599;SDS011;9947;57.722;12.012;2022-10-16T03:58:56;18.80;;;5.10;;
19599;SDS011;9947;57.722;12.012;2022-10-16T04:01:23;23.00;;;5.43;;
19599;SDS011;9947;57.722;12.012;2022-10-16T04:03:49;15.80;;;5.13;;
19599;SDS011;9947;57.722;12.012;2022-10-16T04:06:16;20.03;;;6.27;;
19599;SDS011;9947;57.722;12.012;2022-10-16T04:08:44;24.53;;;5.17;;
19599;SDS011;9947;57.722;12.012;2022-10-16T04:11:11;23.93;;;4.73;;
19599;SDS011;9947;57.722;12.012;2022-10-16T04:13:38;20.73;;;4.97;;
19599;SDS011;9947;57.722;12.012;2022-10-16T04:16:06;22.20;;;5.30;;
19599;SDS011;9947;57.722;12.012;2022-10-16T04:18:33;20.87;;;5.10;;
19599;SDS011;9947;57.722;12.012;2022-10-16T04:21:02;24.30;;;6.17;;
19599;SDS011;9947;57.722;12.012;2022-10-16T04:23:29;17.60;;;5.53;;
19599;SDS011;9947;57.722;12.012;2022-10-16T04:25:57;26.93;;;5.60;;
19599;SDS011;9947;57.722;12.012;2022-10-16T04:28:24;20.07;;;5.57;;
19599;SDS011;9947;57.722;12.012;2022-10-16T04:30:51;24.70;;;5.93;;
19599;SDS011;9947;57.722;12.012;2022-10-16T04:33:18;25.47;;;5.53;;
19599;SDS011;9947;57.722;12.012;2022-10-16T04:35:45;30.23;;;6.50;;
19599;SDS011;9947;57.722;12.012;2022-10-16T04:38:12;25.77;;;6.10;;
19599;SDS011;9947;57.722;12.012;2022-10-16T04:40:39;30.27;;;6.10;;
19599;SDS011;9947;57.722;12.012;2022-10-16T04:43:09;19.93;;;6.60;;
19599;SDS011;9947;57.722;12.012;2022-10-16T04:45:35;18.03;;;5.57;;
19599;SDS011;9947;57.722;12.012;2022-10-16T04:48:02;20.47;;;6.00;;
19599;SDS011;9947;57.722;12.012;2022-10-16T04:50:29;18.20;;;6.43;;
19599;SDS011;9947;57.722;12.012;2022-10-16T04:52:56;24.00;;;6.83;;
19599;SDS011;9947;57.722;12.012;2022-10-16T04:55:23;17.53;;;6.00;;
19599;SDS011;9947;57.722;12.012;2022-10-16T04:57:50;21.87;;;6.40;;
19599;SDS011;9947;57.722;12.012;2022-10-16T05:00:18;24.23;;;6.50;;
19599;SDS011;9947;57.722;12.012;2022-10-16T05:02:45;30.50;;;6.73;;
19599;SDS011;9947;57.722;12.012;2022-10-16T05:05:11;26.93;;;7.90;;
19599;SDS011;9947;57.722;12.012;2022-10-16T05:07:39;27.67;;;6.57;;
19599;SDS011;9947;57.722;12.012;2022-10-16T05:10:08;24.40;;;6.57;;
19599;SDS011;9947;57.722;12.012;2022-10-16T05:12:34;29.20;;;7.20;;
19599;SDS011;9947;57.722;12.012;2022-10-16T05:15:01;17.73;;;6.27;;
19599;SDS011;9947;57.722;12.012;2022-10-16T05:17:32;21.83;;;6.67;;
19599;SDS011;9947;57.722;12.012;2022-10-16T05:19:59;31.17;;;7.00;;
19599;SDS011;9947;57.722;12.012;2022-10-16T05:22:26;25.17;;;6.50;;
19599;SDS011;9947;57.722;12.012;2022-10-16T05:24:53;24.30;;;6.20;;
19599;SDS011;9947;57.722;12.012;2022-10-16T05:27:20;33.77;;;7.03;;
19599;SDS011;9947;57.722;12.012;2022-10-16T05:29:47;18.90;;;6.60;;
19599;SDS011;9947;57.722;12.012;2022-10-16T05:32:15;25.50;;;6.60;;
19599;SDS011;9947;57.722;12.012;2022-10-16T05:34:45;23.97;;;7.47;;
19599;SDS011;9947;57.722;12.012;2022-10-16T05:37:12;22.27;;;7.27;;
19599;SDS011;9947;57.722;12.012;2022-10-16T05:39:39;31.73;;;7.03;;
19599;SDS011;9947;57.722;12.012;2022-10-16T05:42:05;21.17;;;6.30;;
19599;SDS011;9947;57.722;12.012;2022-10-16T05:44:35;27.07;;;6.87;;
19599;SDS011;9947;57.722;12.012;2022-10-16T05:47:01;29.07;;;7.77;;
19599;SDS011;9947;57.722;12.012;2022-10-16T05:49:28;25.43;;;6.73;;
19599;SDS011;9947;57.722;12.012;2022-10-16T05:52:00;23.47;;;7.70;;
19599;SDS011;9947;57.722;12.012;2022-10-16T05:54:27;26.07;;;7.27;;
19599;SDS011;9947;57.722;12.012;2022-10-16T05:56:54;20.43;;;6.27;;
19599;SDS011;9947;57.722;12.012;2022-10-16T05:59:21;27.67;;;6.63;;
19599;SDS011;9947;57.722;12.012;2022-10-16T06:01:47;23.07;;;7.03;;
19599;SDS011;9947;57.722;12.012;2022-10-16T06:04:14;22.17;;;6.57;;
19599;SDS011;9947;57.722;12.012;2022-10-16T06:06:41;19.83;;;6.43;;
19599;SDS011;9947;57.722;12.012;2022-10-16T06:09:09;26.93;;;7.70;;
19599;SDS011;9947;57.722;12.012;2022-10-16T06:11:36;19.33;;;6.73;;
19599;SDS011;9947;57.722;12.012;2022-10-16T06:14:05;23.63;;;8.33;;
19599;SDS011;9947;57.722;12.012;2022-10-16T06:16:32;18.33;;;6.77;;
19599;SDS011;9947;57.722;12.012;2022-10-16T06:19:00;19.10;;;7.30;;
19599;SDS011;9947;57.722;12.012;2022-10-16T06:21:27;24.63;;;8.03;;
19599;SDS011;9947;57.722;12.012;2022-10-16T06:23:55;18.60;;;7.07;;
19599;SDS011;9947;57.722;12.012;2022-10-16T06:26:24;26.30;;;7.80;;
19599;SDS011;9947;57.722;12.012;2022-10-16T06:28:56;29.17;;;8.70;;
19599;SDS011;9947;57.722;12.012;2022-10-16T06:31:24;25.20;;;8.40;;
19599;SDS011;9947;57.722;12.012;2022-10-16T06:33:52;23.73;;;8.37;;
19599;SDS011;9947;57.722;12.012;2022-10-16T06:36:20;27.17;;;7.63;;
19599;SDS011;9947;57.722;12.012;2022-10-16T06:38:47;19.30;;;7.70;;
19599;SDS011;9947;57.722;12.012;2022-10-16T06:41:14;24.87;;;7.83;;
19599;SDS011;9947;57.722;12.012;2022-10-16T06:43:46;24.37;;;8.23;;
19599;SDS011;9947;57.722;12.012;2022-10-16T06:46:14;25.63;;;7.33;;
19599;SDS011;9947;57.722;12.012;2022-10-16T06:48:42;27.17;;;8.47;;
19599;SDS011;9947;57.722;12.012;2022-10-16T06:51:10;22.07;;;7.33;;
19599;SDS011;9947;57.722;12.012;2022-10-16T06:53:41;20.93;;;7.40;;
19599;SDS011;9947;57.722;12.012;2022-10-16T06:56:10;19.50;;;7.13;;
19599;SDS011;9947;57.722;12.012;2022-10-16T06:58:39;19.63;;;6.83;;
19599;SDS011;9947;57.722;12.012;2022-10-16T07:01:07;16.80;;;6.70;;
19599;SDS011;9947;57.722;12.012;2022-10-16T07:03:35;19.00;;;8.00;;
19599;SDS011;9947;57.722;12.012;2022-10-16T07:06:03;20.37;;;5.77;;
19599;SDS011;9947;57.722;12.012;2022-10-16T07:08:31;23.43;;;6.03;;
19599;SDS011;9947;57.722;12.012;2022-10-16T07:10:59;17.73;;;5.40;;
19599;SDS011;9947;57.722;12.012;2022-10-16T07:13:26;9.53;;;4.60;;
19599;SDS011;9947;57.722;12.012;2022-10-16T07:15:53;12.70;;;4.90;;
19599;SDS011;9947;57.722;12.012;2022-10-16T07:18:21;15.37;;;4.53;;
19599;SDS011;9947;57.722;12.012;2022-10-16T07:20:51;13.00;;;4.40;;
19599;SDS011;9947;57.722;12.012;2022-10-16T07:23:18;15.97;;;4.63;;
19599;SDS011;9947;57.722;12.012;2022-10-16T07:25:45;19.23;;;4.57;;
19599;SDS011;9947;57.722;12.012;2022-10-16T07:28:12;14.83;;;4.00;;
19599;SDS011;9947;57.722;12.012;2022-10-16T07:30:39;10.97;;;4.13;;
19599;SDS011;9947;57.722;12.012;2022-10-16T07:33:05;9.53;;;3.57;;
19599;SDS011;9947;57.722;12.012;2022-10-16T07:35:34;17.50;;;4.43;;
19599;SDS011;9947;57.722;12.012;2022-10-16T07:38:03;9.97;;;3.43;;
19599;SDS011;9947;57.722;12.012;2022-10-16T07:40:30;14.43;;;3.67;;
19599;SDS011;9947;57.722;12.012;2022-10-16T07:42:56;16.97;;;3.50;;
19599;SDS011;9947;57.722;12.012;2022-10-16T07:45:23;12.17;;;3.87;;
19599;SDS011;9947;57.722;12.012;2022-10-16T07:47:50;10.97;;;3.00;;
19599;SDS011;9947;57.722;12.012;2022-10-16T07:50:16;10.40;;;3.07;;
19599;SDS011;9947;57.722;12.012;2022-10-16T07:52:46;12.07;;;3.40;;
19599;SDS011;9947;57.722;12.012;2022-10-16T07:55:12;10.53;;;3.20;;
19599;SDS011;9947;57.722;12.012;2022-10-16T07:57:39;13.50;;;2.87;;
19599;SDS011;9947;57.722;12.012;2022-10-16T08:00:06;12.37;;;3.00;;
19599;SDS011;9947;57.722;12.012;2022-10-16T08:02:38;13.10;;;3.30;;
19599;SDS011;9947;57.722;12.012;2022-10-16T08:05:05;12.83;;;3.30;;
19599;SDS011;9947;57.722;12.012;2022-10-16T08:07:32;19.50;;;3.50;;
19599;SDS011;9947;57.722;12.012;2022-10-16T08:10:00;13.80;;;3.57;;
19599;SDS011;9947;57.722;12.012;2022-10-16T08:12:27;18.50;;;3.57;;
19599;SDS011;9947;57.722;12.012;2022-10-16T08:14:54;13.40;;;3.40;;
19599;SDS011;9947;57.722;12.012;2022-10-16T08:17:21;16.97;;;3.63;;
19599;SDS011;9947;57.722;12.012;2022-10-16T08:19:48;19.13;;;3.57;;
19599;SDS011;9947;57.722;12.012;2022-10-16T08:22:15;16.17;;;3.80;;
19599;SDS011;9947;57.722;12.012;2022-10-16T08:24:41;11.67;;;3.90;;
19599;SDS011;9947;57.722;12.012;2022-10-16T08:27:10;17.97;;;4.03;;
19599;SDS011;9947;57.722;12.012;2022-10-16T08:29:36;17.00;;;3.73;;
19599;SDS011;9947;57.722;12.012;2022-10-16T08:32:03;15.67;;;3.83;;
19599;SDS011;9947;57.722;12.012;2022-10-16T08:34:31;19.63;;;3.70;;
19599;SDS011;9947;57.722;12.012;2022-10-16T08:36:57;21.93;;;4.30;;
19599;SDS011;9947;57.722;12.012;2022-10-16T08:39:24;15.50;;;4.17;;
19599;SDS011;9947;57.722;12.012;2022-10-16T08:41:58;18.30;;;3.63;;
19599;SDS011;9947;57.722;12.012;2022-10-16T08:47:35;16.03;;;3.37;;
19599;SDS011;9947;57.722;12.012;2022-10-16T08:50:12;18.73;;;3.53;;
19599;SDS011;9947;57.722;12.012;2022-10-16T08:52:42;18.27;;;3.50;;
19599;SDS011;9947;57.722;12.012;2022-10-16T08:55:15;27.17;;;3.30;;
19599;SDS011;9947;57.722;12.012;2022-10-16T08:57:55;13.30;;;3.33;;
19599;SDS011;9947;57.722;12.012;2022-10-16T09:00:22;19.93;;;4.07;;
19599;SDS011;9947;57.722;12.012;2022-10-16T09:02:51;14.77;;;3.30;;
19599;SDS011;9947;57.722;12.012;2022-10-16T09:05:29;19.93;;;4.00;;
19599;SDS011;9947;57.722;12.012;2022-10-16T09:08:15;19.23;;;3.30;;
19599;SDS011;9947;57.722;12.012;2022-10-16T09:10:54;24.67;;;5.00;;
19599;SDS011;9947;57.722;12.012;2022-10-16T09:13:28;15.60;;;3.40;;
19599;SDS011;9947;57.722;12.012;2022-10-16T09:16:07;17.10;;;3.70;;
19599;SDS011;9947;57.722;12.012;2022-10-16T09:18:43;21.57;;;4.43;;
19599;SDS011;9947;57.722;12.012;2022-10-16T09:21:15;20.23;;;5.27;;
19599;SDS011;9947;57.722;12.012;2022-10-16T09:23:47;23.73;;;4.10;;
19599;SDS011;9947;57.722;12.012;2022-10-16T09:26:15;26.63;;;4.10;;
19599;SDS011;9947;57.722;12.012;2022-10-16T09:28:46;21.63;;;4.07;;
19599;SDS011;9947;57.722;12.012;2022-10-16T09:31:13;14.03;;;3.87;;
19599;SDS011;9947;57.722;12.012;2022-10-16T09:33:43;17.67;;;3.80;;
19599;SDS011;9947;57.722;12.012;2022-10-16T09:36:14;21.40;;;3.70;;
19599;SDS011;9947;57.722;12.012;2022-10-16T09:38:41;19.33;;;4.00;;
19599;SDS011;9947;57.722;12.012;2022-10-16T09:41:13;15.63;;;4.17;;
19599;SDS011;9947;57.722;12.012;2022-10-16T09:43:47;18.30;;;3.67;;
19599;SDS011;9947;57.722;12.012;2022-10-16T09:46:22;20.10;;;3.70;;
19599;SDS011;9947;57.722;12.012;2022-10-16T09:48:53;18.07;;;4.03;;
19599;SDS011;9947;57.722;12.012;2022-10-16T09:51:23;24.13;;;4.33;;
19599;SDS011;9947;57.722;12.012;2022-10-16T09:53:54;18.93;;;3.73;;
19599;SDS011;9947;57.722;12.012;2022-10-16T09:56:23;16.93;;;3.67;;
19599;SDS011;9947;57.722;12.012;2022-10-16T09:58:52;20.37;;;3.63;;
19599;SDS011;9947;57.722;12.012;2022-10-16T10:01:21;14.90;;;3.60;;
19599;SDS011;9947;57.722;12.012;2022-10-16T10:03:55;17.53;;;3.77;;
19599;SDS011;9947;57.722;12.012;2022-10-16T10:06:26;17.90;;;3.87;;
19599;SDS011;9947;57.722;12.012;2022-10-16T10:08:55;21.97;;;3.80;;
19599;SDS011;9947;57.722;12.012;2022-10-16T10:11:38;24.17;;;4.27;;
19599;SDS011;9947;57.722;12.012;2022-10-16T10:14:08;26.23;;;4.30;;
19599;SDS011;9947;57.722;12.012;2022-10-16T10:16:43;19.20;;;4.20;;
19599;SDS011;9947;57.722;12.012;2022-10-16T10:19:13;16.27;;;3.93;;
19599;SDS011;9947;57.722;12.012;2022-10-16T10:21:41;18.13;;;3.47;;
19599;SDS011;9947;57.722;12.012;2022-10-16T10:24:09;14.07;;;3.70;;
19599;SDS011;9947;57.722;12.012;2022-10-16T10:26:38;17.40;;;3.23;;
19599;SDS011;9947;57.722;12.012;2022-10-16T10:29:13;13.93;;;3.53;;
19599;SDS011;9947;57.722;12.012;2022-10-16T10:31:46;16.43;;;3.73;;
19599;SDS011;9947;57.722;12.012;2022-10-16T10:34:30;20.30;;;4.63;;
19599;SDS011;9947;57.722;12.012;2022-10-16T10:37:12;19.13;;;3.93;;
19599;SDS011;9947;57.722;12.012;2022-10-16T10:39:51;16.63;;;3.90;;
19599;SDS011;9947;57.722;12.012;2022-10-16T10:42:27;16.90;;;3.70;;
19599;SDS011;9947;57.722;12.012;2022-10-16T10:45:11;18.43;;;3.20;;
19599;SDS011;9947;57.722;12.012;2022-10-16T10:48:02;19.13;;;4.00;;
19599;SDS011;9947;57.722;12.012;2022-10-16T10:50:39;25.13;;;3.90;;
19599;SDS011;9947;57.722;12.012;2022-10-16T10:53:11;21.03;;;4.03;;
19599;SDS011;9947;57.722;12.012;2022-10-16T10:55:51;23.57;;;3.83;;
19599;SDS011;9947;57.722;12.012;2022-10-16T10:58:27;16.47;;;3.50;;
19599;SDS011;9947;57.722;12.012;2022-10-16T11:01:08;12.33;;;3.40;;
19599;SDS011;9947;57.722;12.012;2022-10-16T11:03:43;15.30;;;3.97;;
19599;SDS011;9947;57.722;12.012;2022-10-16T11:06:23;17.13;;;3.87;;
19599;SDS011;9947;57.722;12.012;2022-10-16T11:08:55;21.40;;;4.53;;
19599;SDS011;9947;57.722;12.012;2022-10-16T11:11:29;21.23;;;4.80;;
19599;SDS011;9947;57.722;12.012;2022-10-16T11:14:02;24.30;;;5.30;;
19599;SDS011;9947;57.722;12.012;2022-10-16T11:16:35;25.00;;;5.70;;
19599;SDS011;9947;57.722;12.012;2022-10-16T11:19:09;19.67;;;5.13;;
19599;SDS011;9947;57.722;12.012;2022-10-16T11:21:43;25.57;;;4.90;;
19599;SDS011;9947;57.722;12.012;2022-10-16T11:24:16;29.47;;;4.70;;
19599;SDS011;9947;57.722;12.012;2022-10-16T11:26:48;17.97;;;4.17;;
19599;SDS011;9947;57.722;12.012;2022-10-16T11:29:20;20.10;;;4.33;;
19599;SDS011;9947;57.722;12.012;2022-10-16T11:31:52;18.57;;;4.63;;
19599;SDS011;9947;57.722;12.012;2022-10-16T11:34:24;20.70;;;4.20;;
19599;SDS011;9947;57.722;12.012;2022-10-16T11:36:56;21.93;;;4.60;;
19599;SDS011;9947;57.722;12.012;2022-10-16T11:39:28;20.83;;;4.33;;
19599;SDS011;9947;57.722;12.012;2022-10-16T11:41:58;27.47;;;4.10;;
19599;SDS011;9947;57.722;12.012;2022-10-16T11:44:34;32.20;;;4.90;;
19599;SDS011;9947;57.722;12.012;2022-10-16T11:47:11;20.67;;;4.40;;
19599;SDS011;9947;57.722;12.012;2022-10-16T11:49:46;31.87;;;5.67;;
19599;SDS011;9947;57.722;12.012;2022-10-16T11:52:17;19.70;;;3.90;;
19599;SDS011;9947;57.722;12.012;2022-10-16T11:54:50;19.83;;;3.67;;
19599;SDS011;9947;57.722;12.012;2022-10-16T11:57:23;23.87;;;4.20;;
19599;SDS011;9947;57.722;12.012;2022-10-16T11:59:54;16.73;;;3.50;;
19599;SDS011;9947;57.722;12.012;2022-10-16T12:02:35;20.07;;;3.80;;
19599;SDS011;9947;57.722;12.012;2022-10-16T12:05:15;15.30;;;2.97;;
19599;SDS011;9947;57.722;12.012;2022-10-16T12:07:51;6.50;;;1.73;;
19599;SDS011;9947;57.722;12.012;2022-10-16T12:10:27;12.63;;;2.40;;
19599;SDS011;9947;57.722;12.012;2022-10-16T12:12:57;18.67;;;3.50;;
19599;SDS011;9947;57.722;12.012;2022-10-16T12:15:24;19.33;;;3.93;;
19599;SDS011;9947;57.722;12.012;2022-10-16T12:17:54;25.47;;;4.33;;
19599;SDS011;9947;57.722;12.012;2022-10-16T12:20:22;24.70;;;4.37;;
19599;SDS011;9947;57.722;12.012;2022-10-16T12:22:57;35.70;;;5.33;;
19599;SDS011;9947;57.722;12.012;2022-10-16T12:25:27;34.27;;;5.60;;
19599;SDS011;9947;57.722;12.012;2022-10-16T12:27:57;42.13;;;5.40;;
19599;SDS011;9947;57.722;12.012;2022-10-16T12:30:27;30.27;;;5.00;;
19599;SDS011;9947;57.722;12.012;2022-10-16T12:32:57;32.17;;;5.00;;
19599;SDS011;9947;57.722;12.012;2022-10-16T12:35:27;24.67;;;4.20;;
19599;SDS011;9947;57.722;12.012;2022-10-16T12:38:04;27.03;;;5.07;;
19599;SDS011;9947;57.722;12.012;2022-10-16T12:40:34;40.60;;;5.27;;
19599;SDS011;9947;57.722;12.012;2022-10-16T12:46:02;34.13;;;4.83;;
19599;SDS011;9947;57.722;12.012;2022-10-16T12:48:32;24.80;;;4.43;;
19599;SDS011;9947;57.722;12.012;2022-10-16T12:51:09;36.83;;;4.10;;
19599;SDS011;9947;57.722;12.012;2022-10-16T12:53:37;26.50;;;4.07;;
19599;SDS011;9947;57.722;12.012;2022-10-16T12:56:08;28.07;;;3.80;;
19599;SDS011;9947;57.722;12.012;2022-10-16T12:58:46;28.43;;;3.87;;
19599;SDS011;9947;57.722;12.012;2022-10-16T13:01:32;22.23;;;3.77;;
19599;SDS011;9947;57.722;12.012;2022-10-16T13:07:19;19.70;;;3.17;;
19599;SDS011;9947;57.722;12.012;2022-10-16T13:10:04;28.20;;;3.97;;
19599;SDS011;9947;57.722;12.012;2022-10-16T13:12:41;21.13;;;4.20;;
19599;SDS011;9947;57.722;12.012;2022-10-16T13:15:38;21.90;;;3.73;;
19599;SDS011;9947;57.722;12.012;2022-10-16T13:18:18;22.33;;;4.10;;
19599;SDS011;9947;57.722;12.012;2022-10-16T13:20:59;20.00;;;3.80;;
19599;SDS011;9947;57.722;12.012;2022-10-16T13:23:36;21.53;;;3.90;;
19599;SDS011;9947;57.722;12.012;2022-10-16T13:26:13;15.83;;;2.87;;
19599;SDS011;9947;57.722;12.012;2022-10-16T13:28:45;17.60;;;3.40;;
19599;SDS011;9947;57.722;12.012;2022-10-16T13:31:14;13.53;;;2.83;;
19599;SDS011;9947;57.722;12.012;2022-10-16T13:33:45;15.40;;;2.77;;
19599;SDS011;9947;57.722;12.012;2022-10-16T13:36:20;10.27;;;2.70;;
19599;SDS011;9947;57.722;12.012;2022-10-16T13:38:48;14.73;;;2.93;;
19599;SDS011;9947;57.722;12.012;2022-10-16T13:41:30;13.80;;;2.73;;
19599;SDS011;9947;57.722;12.012;2022-10-16T13:43:57;11.40;;;2.67;;
19599;SDS011;9947;57.722;12.012;2022-10-16T13:46:25;18.07;;;2.80;;
19599;SDS011;9947;57.722;12.012;2022-10-16T13:48:58;19.33;;;3.37;;
19599;SDS011;9947;57.722;12.012;2022-10-16T13:51:27;16.83;;;3.53;;
19599;SDS011;9947;57.722;12.012;2022-10-16T13:54:00;29.30;;;4.10;;
19599;SDS011;9947;57.722;12.012;2022-10-16T13:56:28;16.50;;;3.47;;
19599;SDS011;9947;57.722;12.012;2022-10-16T13:58:59;13.50;;;2.80;;
19599;SDS011;9947;57.722;12.012;2022-10-16T14:01:27;18.67;;;3.40;;
19599;SDS011;9947;57.722;12.012;2022-10-16T14:04:00;22.17;;;4.33;;
19599;SDS011;9947;57.722;12.012;2022-10-16T14:06:32;13.73;;;3.37;;
19599;SDS011;9947;57.722;12.012;2022-10-16T14:09:00;18.47;;;2.93;;
19599;SDS011;9947;57.722;12.012;2022-10-16T14:11:32;24.17;;;3.57;;
19599;SDS011;9947;57.722;12.012;2022-10-16T14:14:03;16.67;;;3.23;;
19599;SDS011;9947;57.722;12.012;2022-10-16T14:16:30;13.47;;;3.50;;
19599;SDS011;9947;57.722;12.012;2022-10-16T14:18:59;23.90;;;3.73;;
19599;SDS011;9947;57.722;12.012;2022-10-16T14:21:29;15.63;;;3.20;;
19599;SDS011;9947;57.722;12.012;2022-10-16T14:23:58;23.73;;;4.40;;
19599;SDS011;9947;57.722;12.012;2022-10-16T14:26:25;21.63;;;4.00;;
19599;SDS011;9947;57.722;12.012;2022-10-16T14:29:08;16.63;;;3.40;;
19599;SDS011;9947;57.722;12.012;2022-10-16T14:31:38;16.07;;;3.60;;
19599;SDS011;9947;57.722;12.012;2022-10-16T14:36:58;26.70;;;3.83;;
19599;SDS011;9947;57.722;12.012;2022-10-16T14:39:33;21.27;;;3.30;;
19599;SDS011;9947;57.722;12.012;2022-10-16T14:42:00;16.50;;;3.17;;
19599;SDS011;9947;57.722;12.012;2022-10-16T14:44:31;19.70;;;3.47;;
19599;SDS011;9947;57.722;12.012;2022-10-16T14:47:06;19.00;;;3.37;;
19599;SDS011;9947;57.722;12.012;2022-10-16T14:49:35;18.13;;;3.70;;
19599;SDS011;9947;57.722;12.012;2022-10-16T14:52:04;18.77;;;3.03;;
19599;SDS011;9947;57.722;12.012;2022-10-16T14:54:36;24.07;;;3.53;;
19599;SDS011;9947;57.722;12.012;2022-10-16T14:57:02;24.87;;;3.70;;
19599;SDS011;9947;57.722;12.012;2022-10-16T14:59:31;21.40;;;3.37;;
19599;SDS011;9947;57.722;12.012;2022-10-16T15:02:01;19.50;;;3.50;;
19599;SDS011;9947;57.722;12.012;2022-10-16T15:04:44;16.53;;;3.80;;
19599;SDS011;9947;57.722;12.012;2022-10-16T15:07:11;17.10;;;4.20;;